Pagina principale
METAR-TAF:

METAR-TAF

Aeroporti :

Aeroporto Internazionale di Larnaca

Larnaca, Cipro

latitudine: 34-53N, longitudine: 033-38E, altezza: 2 m

Osservazione

Il bollettino è stato emesso 31 minuti fa, alle 19:00 UTC
Vento 6 kt da nord-ovest, variando fra ovest e nord/nord-ovest
Temperature 13°C
Umidità 88%
Pressione 1014 hPa
Visibilità 10 km o più
Poco nuvoloso ad un'altezza di 2000 ft

METAR: LCLK 241900Z 31006KT 260V330 9999 FEW020 13/11 Q1014 NOSIG

Ora: 21:31 (19:31 UTC)

Previsione

Il bollettino è stato emesso 2 ore e 1 minuti fa, alle 17:30 UTC
Previsione valida dal 24 alle 18 UTC al 25 alle 18 UTC
Vento 9 kt da nord/nord-ovest
Visibilità 10 km o più
Poco nuvoloso ad un'altezza di 3000 ft

TAF: LCLK 241730Z 2418/2518 33009KT 9999 FEW030

Osservazioni e previsioni meteorologiche di più di 4000 aeroporti (messaggi METAR e TAF).

Le stazioni disponibili sono rappresentate dai dischi gialli e rossi sulla carta.

Puntare il mouse per vedere il nome della stazione.

Clicca sopra per visualizzare le osservazioni e previsioni meteorologiche.

Per cambiare la mappa : fare clic sui pulsanti verdi con una croce nera per ingrandire, il pulsante verde con un trattino per diminuire, o sulla freccia verde per le mappe adiacenti.


METAR-TAF: